sensor_id;sensor_type;location;lat;lon;timestamp;P1;durP1;ratioP1;P2;durP2;ratioP2
9256;SDS011;4665;51.368;6.782;2022-11-15T00:00:26;7.13;;;6.23;;
9256;SDS011;4665;51.368;6.782;2022-11-15T00:02:52;8.83;;;5.97;;
9256;SDS011;4665;51.368;6.782;2022-11-15T00:05:18;7.10;;;6.33;;
9256;SDS011;4665;51.368;6.782;2022-11-15T00:07:44;6.90;;;6.20;;
9256;SDS011;4665;51.368;6.782;2022-11-15T00:10:09;6.93;;;6.30;;
9256;SDS011;4665;51.368;6.782;2022-11-15T00:12:34;6.97;;;6.30;;
9256;SDS011;4665;51.368;6.782;2022-11-15T00:15:00;6.57;;;5.97;;
9256;SDS011;4665;51.368;6.782;2022-11-15T00:17:25;6.77;;;6.10;;
9256;SDS011;4665;51.368;6.782;2022-11-15T00:19:51;7.33;;;6.60;;
9256;SDS011;4665;51.368;6.782;2022-11-15T00:22:16;7.43;;;6.03;;
9256;SDS011;4665;51.368;6.782;2022-11-15T00:24:42;6.60;;;6.00;;
9256;SDS011;4665;51.368;6.782;2022-11-15T00:27:07;6.63;;;6.03;;
9256;SDS011;4665;51.368;6.782;2022-11-15T00:29:33;7.10;;;6.40;;
9256;SDS011;4665;51.368;6.782;2022-11-15T00:31:59;8.57;;;5.97;;
9256;SDS011;4665;51.368;6.782;2022-11-15T00:34:24;7.37;;;6.23;;
9256;SDS011;4665;51.368;6.782;2022-11-15T00:36:49;10.83;;;6.60;;
9256;SDS011;4665;51.368;6.782;2022-11-15T00:39:15;8.97;;;6.90;;
9256;SDS011;4665;51.368;6.782;2022-11-15T00:41:41;7.50;;;6.23;;
9256;SDS011;4665;51.368;6.782;2022-11-15T00:44:07;6.93;;;6.33;;
9256;SDS011;4665;51.368;6.782;2022-11-15T00:46:32;8.23;;;5.90;;
9256;SDS011;4665;51.368;6.782;2022-11-15T00:48:58;8.63;;;6.33;;
9256;SDS011;4665;51.368;6.782;2022-11-15T00:51:23;6.90;;;6.20;;
9256;SDS011;4665;51.368;6.782;2022-11-15T00:53:49;7.23;;;6.57;;
9256;SDS011;4665;51.368;6.782;2022-11-15T00:56:14;6.93;;;5.87;;
9256;SDS011;4665;51.368;6.782;2022-11-15T00:58:39;7.47;;;6.63;;
9256;SDS011;4665;51.368;6.782;2022-11-15T01:01:06;6.30;;;5.70;;
9256;SDS011;4665;51.368;6.782;2022-11-15T01:03:36;7.87;;;5.90;;
9256;SDS011;4665;51.368;6.782;2022-11-15T01:06:03;7.33;;;6.63;;
9256;SDS011;4665;51.368;6.782;2022-11-15T01:08:29;7.33;;;6.70;;
9256;SDS011;4665;51.368;6.782;2022-11-15T01:10:54;7.63;;;5.97;;
9256;SDS011;4665;51.368;6.782;2022-11-15T01:13:24;7.97;;;5.90;;
9256;SDS011;4665;51.368;6.782;2022-11-15T01:15:50;6.43;;;5.80;;
9256;SDS011;4665;51.368;6.782;2022-11-15T01:18:15;6.27;;;5.60;;
9256;SDS011;4665;51.368;6.782;2022-11-15T01:20:41;6.97;;;6.30;;
9256;SDS011;4665;51.368;6.782;2022-11-15T01:23:07;6.10;;;5.60;;
9256;SDS011;4665;51.368;6.782;2022-11-15T01:25:32;6.60;;;5.90;;
9256;SDS011;4665;51.368;6.782;2022-11-15T01:27:58;6.67;;;5.67;;
9256;SDS011;4665;51.368;6.782;2022-11-15T01:30:23;6.37;;;5.87;;
9256;SDS011;4665;51.368;6.782;2022-11-15T01:32:49;6.07;;;5.37;;
9256;SDS011;4665;51.368;6.782;2022-11-15T01:35:14;5.67;;;5.17;;
9256;SDS011;4665;51.368;6.782;2022-11-15T01:37:40;7.30;;;5.83;;
9256;SDS011;4665;51.368;6.782;2022-11-15T01:40:05;6.10;;;5.53;;
9256;SDS011;4665;51.368;6.782;2022-11-15T01:42:31;7.97;;;5.93;;
9256;SDS011;4665;51.368;6.782;2022-11-15T01:44:56;6.07;;;5.57;;
9256;SDS011;4665;51.368;6.782;2022-11-15T01:47:23;6.77;;;5.30;;
9256;SDS011;4665;51.368;6.782;2022-11-15T01:50:12;6.00;;;5.50;;
9256;SDS011;4665;51.368;6.782;2022-11-15T01:52:41;6.03;;;5.40;;
9256;SDS011;4665;51.368;6.782;2022-11-15T01:55:09;5.53;;;5.03;;
9256;SDS011;4665;51.368;6.782;2022-11-15T01:57:35;6.17;;;5.20;;
9256;SDS011;4665;51.368;6.782;2022-11-15T02:00:01;7.70;;;6.30;;
9256;SDS011;4665;51.368;6.782;2022-11-15T02:02:29;5.97;;;5.47;;
9256;SDS011;4665;51.368;6.782;2022-11-15T02:04:54;6.20;;;5.30;;
9256;SDS011;4665;51.368;6.782;2022-11-15T02:07:20;5.93;;;5.10;;
9256;SDS011;4665;51.368;6.782;2022-11-15T02:09:47;6.63;;;5.00;;
9256;SDS011;4665;51.368;6.782;2022-11-15T02:12:15;6.13;;;5.53;;
9256;SDS011;4665;51.368;6.782;2022-11-15T02:14:46;5.83;;;5.10;;
9256;SDS011;4665;51.368;6.782;2022-11-15T02:30:54;5.63;;;5.13;;
9256;SDS011;4665;51.368;6.782;2022-11-15T02:36:02;5.90;;;5.33;;
9256;SDS011;4665;51.368;6.782;2022-11-15T02:44:32;5.27;;;4.87;;
9256;SDS011;4665;51.368;6.782;2022-11-15T02:47:08;7.03;;;5.57;;
9256;SDS011;4665;51.368;6.782;2022-11-15T02:49:46;6.57;;;5.30;;
9256;SDS011;4665;51.368;6.782;2022-11-15T02:52:14;5.93;;;5.33;;
9256;SDS011;4665;51.368;6.782;2022-11-15T02:54:52;6.23;;;5.40;;
9256;SDS011;4665;51.368;6.782;2022-11-15T02:57:28;6.93;;;5.80;;
9256;SDS011;4665;51.368;6.782;2022-11-15T03:10:46;8.47;;;5.33;;
9256;SDS011;4665;51.368;6.782;2022-11-15T03:19:06;6.10;;;5.60;;
9256;SDS011;4665;51.368;6.782;2022-11-15T03:21:39;8.20;;;5.77;;
9256;SDS011;4665;51.368;6.782;2022-11-15T03:24:06;5.70;;;5.17;;
9256;SDS011;4665;51.368;6.782;2022-11-15T03:26:33;6.70;;;5.87;;
9256;SDS011;4665;51.368;6.782;2022-11-15T03:29:03;5.50;;;5.00;;
9256;SDS011;4665;51.368;6.782;2022-11-15T03:31:36;6.03;;;4.93;;
9256;SDS011;4665;51.368;6.782;2022-11-15T03:34:27;7.10;;;4.80;;
9256;SDS011;4665;51.368;6.782;2022-11-15T03:37:01;5.70;;;5.10;;
9256;SDS011;4665;51.368;6.782;2022-11-15T03:39:26;6.00;;;5.47;;
9256;SDS011;4665;51.368;6.782;2022-11-15T03:47:38;6.10;;;5.20;;
9256;SDS011;4665;51.368;6.782;2022-11-15T03:50:10;6.43;;;5.70;;
9256;SDS011;4665;51.368;6.782;2022-11-15T03:52:39;5.57;;;5.10;;
9256;SDS011;4665;51.368;6.782;2022-11-15T03:55:07;5.87;;;5.37;;
9256;SDS011;4665;51.368;6.782;2022-11-15T03:57:35;5.93;;;5.27;;
9256;SDS011;4665;51.368;6.782;2022-11-15T04:00:01;5.37;;;4.90;;
9256;SDS011;4665;51.368;6.782;2022-11-15T04:02:26;6.97;;;4.80;;
9256;SDS011;4665;51.368;6.782;2022-11-15T04:04:53;5.43;;;4.90;;
9256;SDS011;4665;51.368;6.782;2022-11-15T04:07:18;5.30;;;4.80;;
9256;SDS011;4665;51.368;6.782;2022-11-15T04:09:44;5.50;;;4.30;;
9256;SDS011;4665;51.368;6.782;2022-11-15T04:12:31;4.60;;;4.17;;
9256;SDS011;4665;51.368;6.782;2022-11-15T04:15:00;6.57;;;4.43;;
9256;SDS011;4665;51.368;6.782;2022-11-15T04:17:39;6.80;;;4.33;;
9256;SDS011;4665;51.368;6.782;2022-11-15T04:23:04;4.63;;;4.27;;
9256;SDS011;4665;51.368;6.782;2022-11-15T04:25:51;4.93;;;4.43;;
9256;SDS011;4665;51.368;6.782;2022-11-15T04:28:17;4.60;;;4.17;;
9256;SDS011;4665;51.368;6.782;2022-11-15T04:30:43;4.93;;;4.37;;
9256;SDS011;4665;51.368;6.782;2022-11-15T04:33:09;5.40;;;4.60;;
9256;SDS011;4665;51.368;6.782;2022-11-15T04:35:34;5.33;;;4.43;;
9256;SDS011;4665;51.368;6.782;2022-11-15T04:38:00;5.37;;;4.87;;
9256;SDS011;4665;51.368;6.782;2022-11-15T04:40:27;4.83;;;4.40;;
9256;SDS011;4665;51.368;6.782;2022-11-15T04:42:52;5.57;;;4.70;;
9256;SDS011;4665;51.368;6.782;2022-11-15T04:45:18;4.30;;;3.90;;
9256;SDS011;4665;51.368;6.782;2022-11-15T04:47:44;4.80;;;4.13;;
9256;SDS011;4665;51.368;6.782;2022-11-15T04:50:10;4.93;;;4.30;;
9256;SDS011;4665;51.368;6.782;2022-11-15T04:52:40;5.30;;;4.27;;
9256;SDS011;4665;51.368;6.782;2022-11-15T04:55:07;5.33;;;4.17;;
9256;SDS011;4665;51.368;6.782;2022-11-15T04:57:34;4.43;;;4.03;;
9256;SDS011;4665;51.368;6.782;2022-11-15T04:59:59;4.87;;;4.13;;
9256;SDS011;4665;51.368;6.782;2022-11-15T05:02:25;4.07;;;3.70;;
9256;SDS011;4665;51.368;6.782;2022-11-15T05:05:11;4.57;;;4.17;;
9256;SDS011;4665;51.368;6.782;2022-11-15T05:07:37;4.20;;;3.80;;
9256;SDS011;4665;51.368;6.782;2022-11-15T05:10:02;3.70;;;3.40;;
9256;SDS011;4665;51.368;6.782;2022-11-15T05:12:28;4.00;;;3.70;;
9256;SDS011;4665;51.368;6.782;2022-11-15T05:14:53;4.50;;;4.00;;
9256;SDS011;4665;51.368;6.782;2022-11-15T05:17:19;4.20;;;3.80;;
9256;SDS011;4665;51.368;6.782;2022-11-15T05:19:46;4.57;;;4.23;;
9256;SDS011;4665;51.368;6.782;2022-11-15T05:22:12;4.20;;;3.80;;
9256;SDS011;4665;51.368;6.782;2022-11-15T05:24:37;4.13;;;3.83;;
9256;SDS011;4665;51.368;6.782;2022-11-15T05:27:03;4.43;;;4.03;;
9256;SDS011;4665;51.368;6.782;2022-11-15T05:29:28;4.67;;;4.27;;
9256;SDS011;4665;51.368;6.782;2022-11-15T05:31:53;4.30;;;3.90;;
9256;SDS011;4665;51.368;6.782;2022-11-15T05:34:19;4.43;;;4.10;;
9256;SDS011;4665;51.368;6.782;2022-11-15T05:36:47;4.97;;;4.57;;
9256;SDS011;4665;51.368;6.782;2022-11-15T05:39:13;4.50;;;4.13;;
9256;SDS011;4665;51.368;6.782;2022-11-15T05:41:41;6.10;;;4.40;;
9256;SDS011;4665;51.368;6.782;2022-11-15T05:44:12;4.43;;;4.03;;
9256;SDS011;4665;51.368;6.782;2022-11-15T05:46:41;4.43;;;4.13;;
9256;SDS011;4665;51.368;6.782;2022-11-15T05:49:09;4.50;;;4.10;;
9256;SDS011;4665;51.368;6.782;2022-11-15T05:51:38;5.33;;;4.47;;
9256;SDS011;4665;51.368;6.782;2022-11-15T05:54:04;5.60;;;5.10;;
9256;SDS011;4665;51.368;6.782;2022-11-15T05:56:30;4.70;;;4.30;;
9256;SDS011;4665;51.368;6.782;2022-11-15T05:58:58;4.83;;;4.40;;
9256;SDS011;4665;51.368;6.782;2022-11-15T06:01:25;4.73;;;4.33;;
9256;SDS011;4665;51.368;6.782;2022-11-15T06:03:52;5.17;;;4.67;;
9256;SDS011;4665;51.368;6.782;2022-11-15T06:06:17;5.17;;;4.70;;
9256;SDS011;4665;51.368;6.782;2022-11-15T06:08:43;5.03;;;4.63;;
9256;SDS011;4665;51.368;6.782;2022-11-15T06:11:08;4.80;;;4.40;;
9256;SDS011;4665;51.368;6.782;2022-11-15T06:13:34;4.97;;;4.57;;
9256;SDS011;4665;51.368;6.782;2022-11-15T06:15:59;4.47;;;4.07;;
9256;SDS011;4665;51.368;6.782;2022-11-15T06:18:25;5.00;;;4.50;;
9256;SDS011;4665;51.368;6.782;2022-11-15T06:20:51;5.30;;;4.80;;
9256;SDS011;4665;51.368;6.782;2022-11-15T06:23:16;5.20;;;4.70;;
9256;SDS011;4665;51.368;6.782;2022-11-15T06:25:42;4.83;;;4.30;;
9256;SDS011;4665;51.368;6.782;2022-11-15T06:28:07;4.77;;;4.37;;
9256;SDS011;4665;51.368;6.782;2022-11-15T06:30:33;4.80;;;4.40;;
9256;SDS011;4665;51.368;6.782;2022-11-15T06:32:59;4.90;;;4.50;;
9256;SDS011;4665;51.368;6.782;2022-11-15T06:35:28;4.67;;;4.27;;
9256;SDS011;4665;51.368;6.782;2022-11-15T06:37:54;5.00;;;4.20;;
9256;SDS011;4665;51.368;6.782;2022-11-15T06:40:20;3.93;;;3.63;;
9256;SDS011;4665;51.368;6.782;2022-11-15T06:42:45;4.33;;;4.03;;
9256;SDS011;4665;51.368;6.782;2022-11-15T06:45:11;5.23;;;4.30;;
9256;SDS011;4665;51.368;6.782;2022-11-15T06:47:43;4.33;;;4.03;;
9256;SDS011;4665;51.368;6.782;2022-11-15T06:50:10;4.50;;;4.10;;
9256;SDS011;4665;51.368;6.782;2022-11-15T06:52:35;5.10;;;4.03;;
9256;SDS011;4665;51.368;6.782;2022-11-15T06:55:01;4.20;;;3.90;;
9256;SDS011;4665;51.368;6.782;2022-11-15T06:57:26;4.47;;;4.13;;
9256;SDS011;4665;51.368;6.782;2022-11-15T06:59:51;4.50;;;4.10;;
9256;SDS011;4665;51.368;6.782;2022-11-15T07:02:17;4.87;;;4.47;;
9256;SDS011;4665;51.368;6.782;2022-11-15T07:04:43;5.77;;;3.97;;
9256;SDS011;4665;51.368;6.782;2022-11-15T07:07:09;4.30;;;3.77;;
9256;SDS011;4665;51.368;6.782;2022-11-15T07:09:34;4.33;;;4.03;;
9256;SDS011;4665;51.368;6.782;2022-11-15T07:12:00;4.13;;;3.77;;
9256;SDS011;4665;51.368;6.782;2022-11-15T07:14:25;4.13;;;3.83;;
9256;SDS011;4665;51.368;6.782;2022-11-15T07:16:51;5.17;;;3.97;;
9256;SDS011;4665;51.368;6.782;2022-11-15T07:19:16;4.93;;;4.00;;
9256;SDS011;4665;51.368;6.782;2022-11-15T07:21:41;4.03;;;3.73;;
9256;SDS011;4665;51.368;6.782;2022-11-15T07:24:08;3.90;;;3.57;;
9256;SDS011;4665;51.368;6.782;2022-11-15T07:26:34;4.17;;;3.80;;
9256;SDS011;4665;51.368;6.782;2022-11-15T07:28:59;3.47;;;3.13;;
9256;SDS011;4665;51.368;6.782;2022-11-15T07:31:24;3.73;;;3.43;;
9256;SDS011;4665;51.368;6.782;2022-11-15T07:33:50;3.77;;;3.47;;
9256;SDS011;4665;51.368;6.782;2022-11-15T07:36:15;3.53;;;3.33;;
9256;SDS011;4665;51.368;6.782;2022-11-15T07:38:41;3.50;;;3.20;;
9256;SDS011;4665;51.368;6.782;2022-11-15T07:41:07;3.17;;;2.97;;
9256;SDS011;4665;51.368;6.782;2022-11-15T07:43:32;3.37;;;3.17;;
9256;SDS011;4665;51.368;6.782;2022-11-15T07:45:59;3.70;;;3.40;;
9256;SDS011;4665;51.368;6.782;2022-11-15T07:48:34;4.37;;;3.97;;
9256;SDS011;4665;51.368;6.782;2022-11-15T07:51:05;3.47;;;3.13;;
9256;SDS011;4665;51.368;6.782;2022-11-15T07:53:31;3.00;;;2.80;;
9256;SDS011;4665;51.368;6.782;2022-11-15T07:55:56;3.13;;;2.57;;
9256;SDS011;4665;51.368;6.782;2022-11-15T07:58:22;3.00;;;2.70;;
9256;SDS011;4665;51.368;6.782;2022-11-15T08:00:47;2.53;;;1.60;;
9256;SDS011;4665;51.368;6.782;2022-11-15T08:03:14;1.50;;;1.20;;
9256;SDS011;4665;51.368;6.782;2022-11-15T08:05:41;1.83;;;1.43;;
9256;SDS011;4665;51.368;6.782;2022-11-15T08:08:10;1.93;;;1.20;;
9256;SDS011;4665;51.368;6.782;2022-11-15T08:10:36;0.90;;;0.90;;
9256;SDS011;4665;51.368;6.782;2022-11-15T08:13:06;1.03;;;0.93;;
9256;SDS011;4665;51.368;6.782;2022-11-15T08:15:34;1.13;;;1.13;;
9256;SDS011;4665;51.368;6.782;2022-11-15T08:18:02;1.53;;;1.43;;
9256;SDS011;4665;51.368;6.782;2022-11-15T08:20:29;2.10;;;1.30;;
9256;SDS011;4665;51.368;6.782;2022-11-15T08:22:56;1.70;;;1.37;;
9256;SDS011;4665;51.368;6.782;2022-11-15T08:25:23;1.47;;;1.37;;
9256;SDS011;4665;51.368;6.782;2022-11-15T08:27:54;1.30;;;1.20;;
9256;SDS011;4665;51.368;6.782;2022-11-15T08:30:21;1.70;;;1.60;;
9256;SDS011;4665;51.368;6.782;2022-11-15T08:32:48;2.60;;;2.07;;
9256;SDS011;4665;51.368;6.782;2022-11-15T08:35:15;2.20;;;2.00;;
9256;SDS011;4665;51.368;6.782;2022-11-15T08:37:41;2.77;;;1.80;;
9256;SDS011;4665;51.368;6.782;2022-11-15T08:40:07;1.97;;;1.73;;
9256;SDS011;4665;51.368;6.782;2022-11-15T08:42:33;1.90;;;1.80;;
9256;SDS011;4665;51.368;6.782;2022-11-15T08:44:58;2.30;;;1.97;;
9256;SDS011;4665;51.368;6.782;2022-11-15T08:47:24;2.70;;;2.50;;
9256;SDS011;4665;51.368;6.782;2022-11-15T08:49:49;2.30;;;2.10;;
9256;SDS011;4665;51.368;6.782;2022-11-15T08:52:15;2.27;;;2.17;;
9256;SDS011;4665;51.368;6.782;2022-11-15T08:54:40;3.33;;;2.10;;
9256;SDS011;4665;51.368;6.782;2022-11-15T08:57:06;2.30;;;2.20;;
9256;SDS011;4665;51.368;6.782;2022-11-15T08:59:31;2.20;;;2.10;;
9256;SDS011;4665;51.368;6.782;2022-11-15T09:01:57;2.03;;;1.93;;
9256;SDS011;4665;51.368;6.782;2022-11-15T09:04:23;2.00;;;1.90;;
9256;SDS011;4665;51.368;6.782;2022-11-15T09:06:48;1.83;;;1.73;;
9256;SDS011;4665;51.368;6.782;2022-11-15T09:09:14;2.60;;;2.40;;
9256;SDS011;4665;51.368;6.782;2022-11-15T09:11:39;2.30;;;2.20;;
9256;SDS011;4665;51.368;6.782;2022-11-15T09:14:05;2.70;;;2.50;;
9256;SDS011;4665;51.368;6.782;2022-11-15T09:16:32;2.93;;;2.53;;
9256;SDS011;4665;51.368;6.782;2022-11-15T09:18:58;2.87;;;2.60;;
9256;SDS011;4665;51.368;6.782;2022-11-15T09:21:23;2.60;;;2.40;;
9256;SDS011;4665;51.368;6.782;2022-11-15T09:23:52;3.90;;;2.63;;
9256;SDS011;4665;51.368;6.782;2022-11-15T09:26:17;4.47;;;2.53;;
9256;SDS011;4665;51.368;6.782;2022-11-15T09:28:43;2.50;;;2.30;;
9256;SDS011;4665;51.368;6.782;2022-11-15T09:31:08;3.70;;;2.40;;
9256;SDS011;4665;51.368;6.782;2022-11-15T09:33:34;2.73;;;2.20;;
9256;SDS011;4665;51.368;6.782;2022-11-15T09:36:01;2.33;;;2.13;;
9256;SDS011;4665;51.368;6.782;2022-11-15T09:38:31;2.53;;;2.03;;
9256;SDS011;4665;51.368;6.782;2022-11-15T09:44:04;4.33;;;1.83;;
9256;SDS011;4665;51.368;6.782;2022-11-15T09:49:15;1.60;;;1.50;;
9256;SDS011;4665;51.368;6.782;2022-11-15T09:51:46;2.63;;;1.80;;
9256;SDS011;4665;51.368;6.782;2022-11-15T09:57:11;1.70;;;1.60;;
9256;SDS011;4665;51.368;6.782;2022-11-15T10:04:53;1.47;;;1.37;;
9256;SDS011;4665;51.368;6.782;2022-11-15T10:07:21;2.70;;;1.80;;
9256;SDS011;4665;51.368;6.782;2022-11-15T10:10:20;2.13;;;1.50;;
9256;SDS011;4665;51.368;6.782;2022-11-15T10:13:07;1.93;;;1.40;;
9256;SDS011;4665;51.368;6.782;2022-11-15T10:15:47;1.20;;;1.10;;
9256;SDS011;4665;51.368;6.782;2022-11-15T10:18:19;2.23;;;1.37;;
9256;SDS011;4665;51.368;6.782;2022-11-15T10:21:09;3.47;;;1.70;;
9256;SDS011;4665;51.368;6.782;2022-11-15T10:23:42;2.33;;;1.57;;
9256;SDS011;4665;51.368;6.782;2022-11-15T10:26:08;2.30;;;1.43;;
9256;SDS011;4665;51.368;6.782;2022-11-15T10:28:38;1.40;;;1.30;;
9256;SDS011;4665;51.368;6.782;2022-11-15T10:31:11;2.10;;;1.50;;
9256;SDS011;4665;51.368;6.782;2022-11-15T10:33:47;1.30;;;1.20;;
9256;SDS011;4665;51.368;6.782;2022-11-15T10:41:18;1.07;;;0.97;;
9256;SDS011;4665;51.368;6.782;2022-11-15T10:44:09;1.20;;;1.20;;
9256;SDS011;4665;51.368;6.782;2022-11-15T10:46:42;1.97;;;1.40;;
9256;SDS011;4665;51.368;6.782;2022-11-15T10:49:18;1.87;;;1.30;;
9256;SDS011;4665;51.368;6.782;2022-11-15T10:51:49;1.60;;;1.50;;
9256;SDS011;4665;51.368;6.782;2022-11-15T10:54:25;1.70;;;1.03;;
9256;SDS011;4665;51.368;6.782;2022-11-15T10:56:55;1.10;;;0.97;;
9256;SDS011;4665;51.368;6.782;2022-11-15T10:59:24;3.83;;;1.30;;
9256;SDS011;4665;51.368;6.782;2022-11-15T11:01:53;2.03;;;1.50;;
9256;SDS011;4665;51.368;6.782;2022-11-15T11:04:19;1.37;;;1.23;;
9256;SDS011;4665;51.368;6.782;2022-11-15T11:06:57;2.13;;;1.00;;
9256;SDS011;4665;51.368;6.782;2022-11-15T11:09:32;1.60;;;1.20;;
9256;SDS011;4665;51.368;6.782;2022-11-15T11:12:02;1.57;;;1.30;;
9256;SDS011;4665;51.368;6.782;2022-11-15T11:14:30;1.00;;;0.80;;
9256;SDS011;4665;51.368;6.782;2022-11-15T11:17:16;1.83;;;0.93;;
9256;SDS011;4665;51.368;6.782;2022-11-15T11:31:16;1.10;;;1.00;;
9256;SDS011;4665;51.368;6.782;2022-11-15T11:47:40;2.37;;;1.30;;
9256;SDS011;4665;51.368;6.782;2022-11-15T11:50:15;4.27;;;1.03;;
9256;SDS011;4665;51.368;6.782;2022-11-15T11:58:29;0.80;;;0.70;;
9256;SDS011;4665;51.368;6.782;2022-11-15T12:01:08;2.23;;;1.00;;
9256;SDS011;4665;51.368;6.782;2022-11-15T12:06:45;1.83;;;0.90;;
9256;SDS011;4665;51.368;6.782;2022-11-15T12:14:50;1.47;;;1.03;;
9256;SDS011;4665;51.368;6.782;2022-11-15T12:17:24;1.57;;;0.97;;
9256;SDS011;4665;51.368;6.782;2022-11-15T12:19:56;1.43;;;1.13;;
9256;SDS011;4665;51.368;6.782;2022-11-15T12:27:32;2.63;;;0.87;;
9256;SDS011;4665;51.368;6.782;2022-11-15T12:30:04;0.77;;;0.77;;
9256;SDS011;4665;51.368;6.782;2022-11-15T12:32:40;2.40;;;0.90;;
9256;SDS011;4665;51.368;6.782;2022-11-15T12:35:35;2.17;;;0.63;;
9256;SDS011;4665;51.368;6.782;2022-11-15T12:38:04;2.90;;;0.87;;
9256;SDS011;4665;51.368;6.782;2022-11-15T12:43:01;2.07;;;0.93;;
9256;SDS011;4665;51.368;6.782;2022-11-15T13:02:15;2.13;;;1.03;;
9256;SDS011;4665;51.368;6.782;2022-11-15T13:06:45;5.17;;;1.20;;
9256;SDS011;4665;51.368;6.782;2022-11-15T13:12:03;3.53;;;0.93;;
9256;SDS011;4665;51.368;6.782;2022-11-15T13:35:45;2.47;;;0.73;;
9256;SDS011;4665;51.368;6.782;2022-11-15T13:40:53;4.23;;;1.40;;
9256;SDS011;4665;51.368;6.782;2022-11-15T13:43:26;1.23;;;0.80;;
9256;SDS011;4665;51.368;6.782;2022-11-15T13:49:03;1.40;;;0.90;;
9256;SDS011;4665;51.368;6.782;2022-11-15T13:57:03;1.53;;;0.87;;
9256;SDS011;4665;51.368;6.782;2022-11-15T13:59:35;1.60;;;0.77;;
9256;SDS011;4665;51.368;6.782;2022-11-15T14:02:13;1.20;;;0.90;;
9256;SDS011;4665;51.368;6.782;2022-11-15T14:04:51;2.30;;;1.23;;
9256;SDS011;4665;51.368;6.782;2022-11-15T14:07:20;3.70;;;1.23;;
9256;SDS011;4665;51.368;6.782;2022-11-15T14:09:47;1.77;;;1.10;;
9256;SDS011;4665;51.368;6.782;2022-11-15T14:12:32;2.67;;;1.03;;
9256;SDS011;4665;51.368;6.782;2022-11-15T14:15:00;1.13;;;0.67;;
9256;SDS011;4665;51.368;6.782;2022-11-15T14:17:42;1.70;;;0.90;;
9256;SDS011;4665;51.368;6.782;2022-11-15T14:20:19;1.33;;;1.00;;
9256;SDS011;4665;51.368;6.782;2022-11-15T14:22:56;1.77;;;0.97;;
9256;SDS011;4665;51.368;6.782;2022-11-15T14:25:24;1.20;;;0.90;;
9256;SDS011;4665;51.368;6.782;2022-11-15T14:30:41;2.53;;;1.00;;
9256;SDS011;4665;51.368;6.782;2022-11-15T14:35:50;2.10;;;1.37;;
9256;SDS011;4665;51.368;6.782;2022-11-15T14:38:15;1.20;;;1.13;;
9256;SDS011;4665;51.368;6.782;2022-11-15T14:40:42;1.13;;;0.97;;
9256;SDS011;4665;51.368;6.782;2022-11-15T14:43:12;2.67;;;1.30;;
9256;SDS011;4665;51.368;6.782;2022-11-15T14:45:38;2.63;;;1.30;;
9256;SDS011;4665;51.368;6.782;2022-11-15T14:48:03;2.13;;;1.43;;
9256;SDS011;4665;51.368;6.782;2022-11-15T14:50:29;2.40;;;1.37;;
9256;SDS011;4665;51.368;6.782;2022-11-15T14:52:56;1.40;;;0.97;;
9256;SDS011;4665;51.368;6.782;2022-11-15T14:55:23;1.80;;;1.27;;
9256;SDS011;4665;51.368;6.782;2022-11-15T14:57:50;2.53;;;1.20;;
9256;SDS011;4665;51.368;6.782;2022-11-15T15:00:17;1.67;;;1.43;;
9256;SDS011;4665;51.368;6.782;2022-11-15T15:02:43;1.80;;;1.53;;
9256;SDS011;4665;51.368;6.782;2022-11-15T15:05:14;1.83;;;1.43;;
9256;SDS011;4665;51.368;6.782;2022-11-15T15:07:42;1.67;;;1.50;;
9256;SDS011;4665;51.368;6.782;2022-11-15T15:10:08;2.17;;;1.50;;
9256;SDS011;4665;51.368;6.782;2022-11-15T15:12:33;1.80;;;1.70;;
9256;SDS011;4665;51.368;6.782;2022-11-15T15:14:59;2.37;;;2.17;;
9256;SDS011;4665;51.368;6.782;2022-11-15T15:17:24;4.10;;;1.80;;
9256;SDS011;4665;51.368;6.782;2022-11-15T15:19:50;2.67;;;1.70;;
9256;SDS011;4665;51.368;6.782;2022-11-15T15:22:16;4.73;;;1.90;;
9256;SDS011;4665;51.368;6.782;2022-11-15T15:24:44;1.70;;;1.60;;
9256;SDS011;4665;51.368;6.782;2022-11-15T15:27:11;2.20;;;2.00;;
9256;SDS011;4665;51.368;6.782;2022-11-15T15:29:37;1.90;;;1.67;;
9256;SDS011;4665;51.368;6.782;2022-11-15T15:32:03;3.27;;;2.10;;
9256;SDS011;4665;51.368;6.782;2022-11-15T15:34:28;1.87;;;1.77;;
9256;SDS011;4665;51.368;6.782;2022-11-15T15:39:52;2.70;;;1.73;;
9256;SDS011;4665;51.368;6.782;2022-11-15T15:42:19;2.43;;;1.93;;
9256;SDS011;4665;51.368;6.782;2022-11-15T15:44:46;1.80;;;1.70;;
9256;SDS011;4665;51.368;6.782;2022-11-15T15:47:12;1.47;;;1.43;;
9256;SDS011;4665;51.368;6.782;2022-11-15T15:49:40;2.27;;;2.07;;
9256;SDS011;4665;51.368;6.782;2022-11-15T15:52:05;1.90;;;1.70;;
9256;SDS011;4665;51.368;6.782;2022-11-15T15:54:31;2.00;;;1.80;;
9256;SDS011;4665;51.368;6.782;2022-11-15T15:56:56;1.70;;;1.60;;
9256;SDS011;4665;51.368;6.782;2022-11-15T15:59:22;1.73;;;1.63;;
9256;SDS011;4665;51.368;6.782;2022-11-15T16:01:47;1.80;;;1.70;;
9256;SDS011;4665;51.368;6.782;2022-11-15T16:04:12;1.70;;;1.60;;
9256;SDS011;4665;51.368;6.782;2022-11-15T16:06:38;1.77;;;1.67;;
9256;SDS011;4665;51.368;6.782;2022-11-15T16:09:10;1.80;;;1.70;;
9256;SDS011;4665;51.368;6.782;2022-11-15T16:11:41;2.07;;;1.67;;
9256;SDS011;4665;51.368;6.782;2022-11-15T16:14:07;2.00;;;1.60;;
9256;SDS011;4665;51.368;6.782;2022-11-15T16:16:34;1.60;;;1.50;;
9256;SDS011;4665;51.368;6.782;2022-11-15T16:18:59;2.00;;;1.77;;
9256;SDS011;4665;51.368;6.782;2022-11-15T16:21:26;1.80;;;1.70;;
9256;SDS011;4665;51.368;6.782;2022-11-15T16:23:52;3.07;;;2.53;;
9256;SDS011;4665;51.368;6.782;2022-11-15T16:26:20;1.80;;;1.70;;
9256;SDS011;4665;51.368;6.782;2022-11-15T16:28:48;2.20;;;1.90;;
9256;SDS011;4665;51.368;6.782;2022-11-15T16:31:13;4.73;;;1.93;;
9256;SDS011;4665;51.368;6.782;2022-11-15T16:33:39;1.80;;;1.70;;
9256;SDS011;4665;51.368;6.782;2022-11-15T16:36:06;2.00;;;1.63;;
9256;SDS011;4665;51.368;6.782;2022-11-15T16:38:39;1.93;;;1.50;;
9256;SDS011;4665;51.368;6.782;2022-11-15T16:41:04;1.60;;;1.50;;
9256;SDS011;4665;51.368;6.782;2022-11-15T16:43:30;1.93;;;1.80;;
9256;SDS011;4665;51.368;6.782;2022-11-15T16:45:55;2.40;;;2.20;;
9256;SDS011;4665;51.368;6.782;2022-11-15T16:48:27;1.67;;;1.57;;
9256;SDS011;4665;51.368;6.782;2022-11-15T16:50:56;2.23;;;2.03;;
9256;SDS011;4665;51.368;6.782;2022-11-15T16:53:23;2.27;;;2.07;;
9256;SDS011;4665;51.368;6.782;2022-11-15T16:55:49;1.90;;;1.80;;
9256;SDS011;4665;51.368;6.782;2022-11-15T16:58:14;1.90;;;1.60;;
9256;SDS011;4665;51.368;6.782;2022-11-15T17:00:39;1.60;;;1.50;;
9256;SDS011;4665;51.368;6.782;2022-11-15T17:03:05;3.03;;;1.60;;
9256;SDS011;4665;51.368;6.782;2022-11-15T17:05:31;1.70;;;1.60;;
9256;SDS011;4665;51.368;6.782;2022-11-15T17:07:56;2.23;;;2.10;;
9256;SDS011;4665;51.368;6.782;2022-11-15T17:10:22;3.50;;;2.10;;
9256;SDS011;4665;51.368;6.782;2022-11-15T17:12:49;1.77;;;1.60;;
9256;SDS011;4665;51.368;6.782;2022-11-15T17:15:15;1.80;;;1.70;;
9256;SDS011;4665;51.368;6.782;2022-11-15T17:17:41;1.90;;;1.80;;
9256;SDS011;4665;51.368;6.782;2022-11-15T17:20:12;2.00;;;1.90;;
9256;SDS011;4665;51.368;6.782;2022-11-15T17:22:39;2.07;;;1.97;;
9256;SDS011;4665;51.368;6.782;2022-11-15T17:25:04;1.57;;;1.50;;
9256;SDS011;4665;51.368;6.782;2022-11-15T17:27:30;1.80;;;1.67;;
9256;SDS011;4665;51.368;6.782;2022-11-15T17:29:56;1.40;;;1.40;;
9256;SDS011;4665;51.368;6.782;2022-11-15T17:32:21;1.70;;;1.60;;
9256;SDS011;4665;51.368;6.782;2022-11-15T17:34:47;1.97;;;1.67;;
9256;SDS011;4665;51.368;6.782;2022-11-15T17:37:12;1.90;;;1.53;;
9256;SDS011;4665;51.368;6.782;2022-11-15T17:39:38;1.80;;;1.70;;
9256;SDS011;4665;51.368;6.782;2022-11-15T17:42:03;1.50;;;1.40;;
9256;SDS011;4665;51.368;6.782;2022-11-15T17:44:29;1.57;;;1.57;;
9256;SDS011;4665;51.368;6.782;2022-11-15T17:46:55;1.87;;;1.77;;
9256;SDS011;4665;51.368;6.782;2022-11-15T17:49:20;2.90;;;2.53;;
9256;SDS011;4665;51.368;6.782;2022-11-15T17:51:45;2.03;;;1.90;;
9256;SDS011;4665;51.368;6.782;2022-11-15T17:54:11;1.60;;;1.50;;
9256;SDS011;4665;51.368;6.782;2022-11-15T17:56:37;2.00;;;1.63;;
9256;SDS011;4665;51.368;6.782;2022-11-15T17:59:04;1.83;;;1.50;;
9256;SDS011;4665;51.368;6.782;2022-11-15T18:01:31;1.70;;;1.60;;
9256;SDS011;4665;51.368;6.782;2022-11-15T18:03:58;2.47;;;1.50;;
9256;SDS011;4665;51.368;6.782;2022-11-15T18:06:26;1.83;;;1.60;;
9256;SDS011;4665;51.368;6.782;2022-11-15T18:08:57;1.50;;;1.50;;
9256;SDS011;4665;51.368;6.782;2022-11-15T18:11:30;1.83;;;1.73;;
9256;SDS011;4665;51.368;6.782;2022-11-15T18:13:59;1.80;;;1.70;;
9256;SDS011;4665;51.368;6.782;2022-11-15T18:16:27;1.53;;;1.50;;